createdAt,value
2022-09-02T00:01:01.785Z,101157.81
2022-09-02T00:03:31.591Z,101155.81
2022-09-02T00:05:58.569Z,101156.59
2022-09-02T00:08:25.158Z,101154.97
2022-09-02T00:10:52.361Z,101147.69
2022-09-02T00:13:20.731Z,101140.41
2022-09-02T00:15:49.049Z,101148.06
2022-09-02T00:18:18.088Z,101146.03
2022-09-02T00:20:47.480Z,101149.63
2022-09-02T00:23:16.315Z,101143.13
2022-09-02T00:25:45.344Z,101138.66
2022-09-02T00:28:14.943Z,101135.84
2022-09-02T00:30:42.676Z,101133.81
2022-09-02T00:33:09.667Z,101128.13
2022-09-02T00:35:36.505Z,101127.75
2022-09-02T00:38:03.647Z,101125.69
2022-09-02T00:40:30.810Z,101131.75
2022-09-02T00:42:57.501Z,101121.63
2022-09-02T00:45:24.772Z,101126.88
2022-09-02T00:47:51.901Z,101130.06
2022-09-02T00:50:24.290Z,101123.59
2022-09-02T00:52:56.599Z,101126.81
2022-09-02T00:55:27.677Z,101127.22
2022-09-02T00:57:59.708Z,101125.63
2022-09-02T01:00:35.637Z,101124.38
2022-09-02T01:03:06.584Z,101122.34
2022-09-02T01:05:38.618Z,101119.94
2022-09-02T01:08:09.648Z,101121.16
2022-09-02T01:10:36.851Z,101117.53
2022-09-02T01:13:10.980Z,101129.59
2022-09-02T01:15:43.495Z,101114.69
2022-09-02T01:18:19.236Z,101127.97
2022-09-02T01:20:46.447Z,101115.03
2022-09-02T01:23:16.304Z,101116.66
2022-09-02T01:25:43.107Z,101123.50
2022-09-02T01:28:13.480Z,101122.28
2022-09-02T01:30:45.496Z,101115.81
2022-09-02T01:33:12.197Z,101111.78
2022-09-02T01:35:39.004Z,101112.59
2022-09-02T01:38:05.735Z,101120.25
2022-09-02T01:40:32.589Z,101112.19
2022-09-02T01:43:07.783Z,101112.59
2022-09-02T01:45:36.574Z,101112.19
2022-09-02T01:48:04.104Z,101113.00
2022-09-02T01:50:31.585Z,101110.19
2022-09-02T01:53:01.655Z,101108.16
2022-09-02T01:55:28.151Z,101101.72
2022-09-02T01:57:54.811Z,101101.72
2022-09-02T02:00:22.128Z,101092.44
2022-09-02T02:02:48.672Z,101090.44
2022-09-02T02:05:15.888Z,101094.84
2022-09-02T02:07:43.671Z,101086.00
2022-09-02T02:10:11.666Z,101090.44
2022-09-02T02:12:39.500Z,101091.63
2022-09-02T02:15:08.699Z,101089.22
2022-09-02T02:17:35.223Z,101085.56
2022-09-02T02:20:01.785Z,101087.19
2022-09-02T02:22:28.364Z,101086.78
2022-09-02T02:24:54.940Z,101084.31
2022-09-02T02:27:21.460Z,101084.72
2022-09-02T02:29:48.018Z,101083.91
2022-09-02T02:32:14.806Z,101081.91
2022-09-02T02:34:41.298Z,101085.13
2022-09-02T02:37:07.848Z,101086.78
2022-09-02T02:39:34.324Z,101081.94
2022-09-02T02:42:00.833Z,101079.50
2022-09-02T02:44:29.359Z,101087.56
2022-09-02T02:46:55.923Z,101083.56
2022-09-02T02:49:23.223Z,101088.00
2022-09-02T02:51:49.917Z,101082.38
2022-09-02T02:54:16.597Z,101079.53
2022-09-02T02:56:43.160Z,101083.97
2022-09-02T02:59:09.659Z,101079.53
2022-09-02T03:01:36.442Z,101080.34
2022-09-02T03:04:03.397Z,101084.38
2022-09-02T03:06:30.024Z,101078.75
2022-09-02T03:08:56.967Z,101084.38
2022-09-02T03:11:28.458Z,101074.69
2022-09-02T03:13:55.663Z,101076.28
2022-09-02T03:16:22.555Z,101069.84
2022-09-02T03:18:50.620Z,101073.88
2022-09-02T03:21:18.628Z,101083.16
2022-09-02T03:23:46.419Z,101079.91
2022-09-02T03:26:18.972Z,101074.69
2022-09-02T03:28:47.534Z,101076.28
2022-09-02T03:31:17.923Z,101075.47
2022-09-02T03:33:44.849Z,101077.09
2022-09-02T03:36:33.307Z,101069.03
2022-09-02T03:38:59.849Z,101069.47
2022-09-02T03:41:26.620Z,101071.50
2022-09-02T03:43:53.155Z,101064.25
2022-09-02T03:46:20.008Z,101062.66
2022-09-02T03:48:46.993Z,101071.47
2022-09-02T03:51:13.906Z,101057.78
2022-09-02T03:53:40.494Z,101061.00
2022-09-02T03:56:11.997Z,101054.13
2022-09-02T03:58:40.327Z,101054.94
2022-09-02T04:01:08.628Z,101060.56
2022-09-02T04:03:35.122Z,101056.13
2022-09-02T04:06:01.700Z,101053.31
2022-09-02T04:08:28.268Z,101060.97
2022-09-02T04:10:56.303Z,101054.53
2022-09-02T04:13:23.000Z,101049.69
2022-09-02T04:15:49.737Z,101052.50
2022-09-02T04:18:17.283Z,101052.91
2022-09-02T04:20:44.916Z,101054.13
2022-09-02T04:23:12.045Z,101053.72
2022-09-02T04:25:43.491Z,101055.75
2022-09-02T04:28:10.316Z,101053.34
2022-09-02T04:30:41.292Z,101050.53
2022-09-02T04:33:07.778Z,101047.31
2022-09-02T04:35:36.086Z,101058.19
2022-09-02T04:38:03.088Z,101052.97
2022-09-02T04:40:29.953Z,101051.34
2022-09-02T04:42:56.540Z,101044.06
2022-09-02T04:45:26.549Z,101045.28
2022-09-02T04:47:55.754Z,101048.09
2022-09-02T04:50:22.273Z,101045.69
2022-09-02T04:52:48.770Z,101041.63
2022-09-02T04:55:15.327Z,101040.03
2022-09-02T04:57:42.440Z,101042.44
2022-09-02T05:00:10.102Z,101045.63
2022-09-02T05:02:36.682Z,101049.25
2022-09-02T05:05:03.824Z,101049.25
2022-09-02T05:07:31.026Z,101045.25
2022-09-02T05:10:00.550Z,101055.75
2022-09-02T05:12:28.061Z,101043.66
2022-09-02T05:14:57.168Z,101047.69
2022-09-02T05:17:23.968Z,101046.91
2022-09-02T05:19:50.515Z,101045.69
2022-09-02T05:22:17.275Z,101051.34
2022-09-02T05:24:44.075Z,101044.50
2022-09-02T05:27:10.720Z,101049.34
2022-09-02T05:29:37.345Z,101044.94
2022-09-02T05:32:04.344Z,101048.97
2022-09-02T05:34:30.979Z,101051.00
2022-09-02T05:36:57.490Z,101052.25
2022-09-02T05:39:25.382Z,101054.66
2022-09-02T05:41:51.911Z,101052.63
2022-09-02T05:44:18.474Z,101050.63
2022-09-02T05:46:48.732Z,101054.69
2022-09-02T05:49:18.232Z,101055.06
2022-09-02T05:51:51.008Z,101056.28
2022-09-02T05:54:25.441Z,101048.66
2022-09-02T05:56:54.596Z,101049.47
2022-09-02T05:59:22.893Z,101048.25
2022-09-02T06:01:50.773Z,101045.88
2022-09-02T06:04:17.954Z,101044.25
2022-09-02T06:06:44.901Z,101052.72
2022-09-02T06:09:16.744Z,101041.88
2022-09-02T06:11:46.088Z,101039.84
2022-09-02T06:14:14.228Z,101045.09
2022-09-02T06:16:42.229Z,101048.72
2022-09-02T06:19:08.805Z,101041.47
2022-09-02T06:21:36.683Z,101050.41
2022-09-02T06:24:07.090Z,101045.56
2022-09-02T06:26:34.114Z,101041.53
2022-09-02T06:29:00.610Z,101041.13
2022-09-02T06:31:27.319Z,101037.50
2022-09-02T06:34:01.778Z,101038.34
2022-09-02T06:36:31.414Z,101044.41
2022-09-02T06:38:59.474Z,101048.84
2022-09-02T06:41:29.691Z,101043.59
2022-09-02T06:43:58.814Z,101042.78
2022-09-02T06:46:29.875Z,101050.06
2022-09-02T06:48:56.967Z,101038.75
2022-09-02T06:51:33.699Z,101037.97
2022-09-02T06:54:00.771Z,101032.75
2022-09-02T06:56:27.480Z,101040.41
2022-09-02T06:58:54.038Z,101027.50
2022-09-02T07:01:24.188Z,101037.59
2022-09-02T07:04:09.413Z,101029.13
2022-09-02T07:06:38.305Z,101033.13
2022-09-02T07:09:06.151Z,101034.34
2022-09-02T07:11:33.371Z,101030.69
2022-09-02T07:14:01.731Z,101036.34
2022-09-02T07:16:34.119Z,101045.22
2022-09-02T07:19:01.342Z,101039.53
2022-09-02T07:21:29.395Z,101034.28
2022-09-02T07:23:58.860Z,101027.75
2022-09-02T07:26:25.924Z,101033.44
2022-09-02T07:28:52.906Z,101033.41
2022-09-02T07:31:19.912Z,101036.63
2022-09-02T07:33:50.056Z,101028.50
2022-09-02T07:36:17.213Z,101026.44
2022-09-02T07:38:43.721Z,101032.91
2022-09-02T07:41:10.746Z,101032.03
2022-09-02T07:43:38.420Z,101036.47
2022-09-02T07:46:06.111Z,101025.09
2022-09-02T07:48:33.871Z,101035.59
2022-09-02T07:51:01.205Z,101027.03
2022-09-02T07:53:28.725Z,101034.72
2022-09-02T07:55:55.223Z,101026.59
2022-09-02T07:58:22.541Z,101029.34
2022-09-02T08:00:50.630Z,101028.09
2022-09-02T08:03:17.625Z,101029.69
2022-09-02T08:05:47.000Z,101026.75
2022-09-02T08:08:15.135Z,101019.81
2022-09-02T08:10:42.473Z,101017.75
2022-09-02T08:13:10.534Z,101020.13
2022-09-02T08:15:37.395Z,101018.44
2022-09-02T08:18:05.981Z,101018.00
2022-09-02T08:20:33.075Z,101019.97
2022-09-02T08:23:10.833Z,101029.22
2022-09-02T08:25:38.661Z,101019.78
2022-09-02T08:28:05.194Z,101027.41
2022-09-02T08:30:31.842Z,101022.47
2022-09-02T08:32:58.396Z,101027.66
2022-09-02T08:35:24.923Z,101032.88
2022-09-02T08:37:51.965Z,101027.91
2022-09-02T08:40:24.834Z,101024.19
2022-09-02T08:42:56.517Z,101022.47
2022-09-02T08:45:32.796Z,101021.59
2022-09-02T08:48:12.720Z,101023.56
2022-09-02T08:50:42.904Z,101025.94
2022-09-02T08:53:32.512Z,101022.59
2022-09-02T08:56:01.218Z,101021.31
2022-09-02T08:58:33.181Z,101021.28
2022-09-02T09:01:07.844Z,101020.81
2022-09-02T09:03:47.598Z,101019.94
2022-09-02T09:06:30.176Z,101013.41
2022-09-02T09:09:13.990Z,101012.47
2022-09-02T09:11:52.154Z,101004.66
2022-09-02T09:14:18.651Z,101000.44
2022-09-02T09:16:59.822Z,101005.63
2022-09-02T09:19:50.440Z,100997.75
2022-09-02T09:22:21.199Z,101001.22
2022-09-02T09:24:50.271Z,100999.41
2022-09-02T09:27:19.932Z,100993.53
2022-09-02T09:29:49.399Z,100985.59
2022-09-02T09:32:29.317Z,100983.09
2022-09-02T09:35:07.784Z,100978.88
2022-09-02T09:37:50.155Z,100979.16
2022-09-02T09:40:25.528Z,100975.00
2022-09-02T09:42:57.962Z,100973.28
2022-09-02T09:45:27.581Z,100973.84
2022-09-02T09:48:19.260Z,100965.53
2022-09-02T09:50:47.775Z,100968.41
2022-09-02T09:53:24.695Z,100969.38
2022-09-02T09:55:55.695Z,100960.06
2022-09-02T09:58:37.018Z,100959.53
2022-09-02T10:01:24.610Z,100958.22
2022-09-02T10:04:00.978Z,100953.97
2022-09-02T10:06:33.443Z,100958.34
2022-09-02T10:09:20.170Z,100953.34
2022-09-02T10:12:02.007Z,100954.75
2022-09-02T10:14:47.835Z,100954.28
2022-09-02T10:17:40.280Z,100953.38
2022-09-02T10:20:22.665Z,100957.41
2022-09-02T10:22:59.919Z,100947.50
2022-09-02T10:25:34.157Z,100942.41
2022-09-02T10:28:18.283Z,100945.09
2022-09-02T10:30:59.819Z,100936.56
2022-09-02T10:34:07.817Z,100931.75
2022-09-02T10:36:52.462Z,100931.72
2022-09-02T10:39:25.446Z,100933.94
2022-09-02T10:41:58.533Z,100928.03
2022-09-02T10:44:31.342Z,100922.56
2022-09-02T10:47:14.883Z,100920.28
2022-09-02T10:50:03.097Z,100907.28
2022-09-02T10:52:35.607Z,100914.19
2022-09-02T10:55:25.075Z,100911.47
2022-09-02T10:58:01.084Z,100912.16
2022-09-02T11:00:31.060Z,100907.72
2022-09-02T11:03:12.858Z,100907.13
2022-09-02T11:06:04.916Z,100905.97
2022-09-02T11:08:38.575Z,100895.56
2022-09-02T11:11:21.401Z,100894.84
2022-09-02T11:14:02.242Z,100892.09
2022-09-02T11:16:46.020Z,100893.81
2022-09-02T11:19:32.868Z,100890.63
2022-09-02T11:22:11.659Z,100880.31
2022-09-02T11:25:16.593Z,100886.84
2022-09-02T11:27:53.357Z,100874.03
2022-09-02T11:30:22.326Z,100877.16
2022-09-02T11:33:40.174Z,100873.41
2022-09-02T11:36:07.005Z,100866.75
2022-09-02T11:38:42.790Z,100866.09
2022-09-02T11:41:34.116Z,100870.75
2022-09-02T11:44:31.492Z,100870.53
2022-09-02T11:47:01.237Z,100870.66
2022-09-02T11:49:40.038Z,100868.34
2022-09-02T11:55:06.299Z,100855.63
2022-09-02T11:57:33.136Z,100864.66
2022-09-02T11:59:59.564Z,100850.56
2022-09-02T12:02:51.601Z,100857.78
2022-09-02T12:05:30.313Z,100850.84
2022-09-02T12:08:34.427Z,100853.44
2022-09-02T12:11:04.831Z,100846.56
2022-09-02T12:16:21.130Z,100843.66
2022-09-02T12:18:54.120Z,100839.72
2022-09-02T12:21:23.496Z,100838.97
2022-09-02T12:23:55.920Z,100835.84
2022-09-02T12:26:28.474Z,100833.50
2022-09-02T12:29:10.976Z,100829.44
2022-09-02T12:31:41.120Z,100826.97
2022-09-02T12:34:25.972Z,100821.56
2022-09-02T12:36:52.413Z,100818.06
2022-09-02T12:39:24.965Z,100813.28
2022-09-02T12:42:01.356Z,100812.16
2022-09-02T12:44:52.778Z,100815.97
2022-09-02T12:47:53.428Z,100811.50
2022-09-02T12:50:53.760Z,100812.78
2022-09-02T12:53:23.352Z,100808.63
2022-09-02T12:56:04.333Z,100803.03
2022-09-02T12:58:53.693Z,100807.31
2022-09-02T13:01:38.923Z,100799.38
2022-09-02T13:04:05.535Z,100800.53
2022-09-02T13:06:53.838Z,100800.66
2022-09-02T13:09:49.318Z,100807.00
2022-09-02T13:12:40.435Z,100792.69
2022-09-02T13:15:23.943Z,100798.88
2022-09-02T13:18:18.274Z,100792.34
2022-09-02T13:20:56.050Z,100801.75
2022-09-02T13:23:49.006Z,100795.78
2022-09-02T13:26:53.754Z,100785.75
2022-09-02T13:30:01.105Z,100790.03
2022-09-02T13:32:30.275Z,100784.75
2022-09-02T13:35:02.196Z,100777.91
2022-09-02T13:37:52.873Z,100780.41
2022-09-02T13:40:36.113Z,100781.81
2022-09-02T13:43:16.093Z,100784.69
2022-09-02T13:45:43.917Z,100768.78
2022-09-02T13:48:20.693Z,100764.00
2022-09-02T13:50:52.257Z,100767.19
2022-09-02T13:54:05.016Z,100766.41
2022-09-02T13:56:15.468Z,100762.56
2022-09-02T13:58:47.301Z,100769.44
2022-09-02T14:01:32.786Z,100757.19
2022-09-02T14:06:38.847Z,100755.97
2022-09-02T14:09:08.543Z,100758.22
2022-09-02T14:11:48.064Z,100743.41
2022-09-02T14:14:16.419Z,100742.84
2022-09-02T14:16:42.901Z,100748.78
2022-09-02T14:19:10.953Z,100746.88
2022-09-02T14:21:45.775Z,100740.66
2022-09-02T14:24:15.073Z,100735.28
2022-09-02T14:26:44.090Z,100740.53
2022-09-02T14:29:16.025Z,100744.50
2022-09-02T14:31:43.156Z,100731.78
2022-09-02T14:34:39.243Z,100740.22
2022-09-02T14:37:20.923Z,100729.53
2022-09-02T14:39:54.832Z,100712.47
2022-09-02T14:42:21.513Z,100721.88
2022-09-02T14:44:48.089Z,100714.69
2022-09-02T14:47:16.722Z,100715.31
2022-09-02T14:49:53.458Z,100713.97
2022-09-02T14:52:35.565Z,100720.31
2022-09-02T14:55:03.403Z,100715.38
2022-09-02T14:57:32.651Z,100705.69
2022-09-02T15:00:02.185Z,100712.34
2022-09-02T15:02:28.606Z,100705.94
2022-09-02T15:04:56.591Z,100705.78
2022-09-02T15:07:24.455Z,100713.88
2022-09-02T15:09:51.401Z,100704.28
2022-09-02T15:12:35.214Z,100692.44
2022-09-02T15:15:01.797Z,100695.31
2022-09-02T15:17:29.488Z,100693.06
2022-09-02T15:19:56.654Z,100686.16
2022-09-02T15:22:23.854Z,100693.97
2022-09-02T15:24:51.549Z,100694.34
2022-09-02T15:27:21.474Z,100694.53
2022-09-02T15:29:49.036Z,100682.28
2022-09-02T15:32:15.644Z,100691.31
2022-09-02T15:34:42.199Z,100681.94
2022-09-02T15:37:12.677Z,100682.72
2022-09-02T15:39:40.277Z,100686.41
2022-09-02T15:42:07.142Z,100686.41
2022-09-02T15:44:33.662Z,100682.72
2022-09-02T15:47:00.178Z,100679.84
2022-09-02T15:49:27.469Z,100674.97
2022-09-02T15:51:55.066Z,100681.78
2022-09-02T15:54:23.479Z,100671.47
2022-09-02T15:56:55.163Z,100675.47
2022-09-02T15:59:22.197Z,100666.72
2022-09-02T16:01:58.756Z,100661.50
2022-09-02T16:04:27.187Z,100665.59
2022-09-02T16:06:54.018Z,100661.63
2022-09-02T16:09:20.849Z,100658.09
2022-09-02T16:11:50.357Z,100658.41
2022-09-02T16:14:20.547Z,100650.34
2022-09-02T16:16:48.257Z,100649.72
2022-09-02T16:19:14.813Z,100650.00
2022-09-02T16:21:41.345Z,100647.25
2022-09-02T16:24:08.897Z,100645.78
2022-09-02T16:26:40.142Z,100641.34
2022-09-02T16:29:13.723Z,100637.69
2022-09-02T16:31:42.076Z,100640.91
2022-09-02T16:34:12.057Z,100633.91
2022-09-02T16:36:44.370Z,100633.09
2022-09-02T16:39:12.970Z,100629.28
2022-09-02T16:41:44.415Z,100628.97
2022-09-02T16:44:13.915Z,100619.25
2022-09-02T16:46:43.031Z,100622.91
2022-09-02T16:49:11.284Z,100622.59
2022-09-02T16:51:40.738Z,100626.38
2022-09-02T16:54:09.417Z,100621.94
2022-09-02T16:56:44.180Z,100607.31
2022-09-02T16:59:12.759Z,100621.75
2022-09-02T17:01:40.535Z,100618.22
2022-09-02T17:04:08.686Z,100617.53
2022-09-02T17:06:39.917Z,100618.16
2022-09-02T17:09:09.055Z,100607.78
2022-09-02T17:11:39.634Z,100614.56
2022-09-02T17:14:11.914Z,100618.94
2022-09-02T17:16:47.569Z,100627.31
2022-09-02T17:19:20.995Z,100622.19
2022-09-02T17:21:50.790Z,100622.78
2022-09-02T17:24:19.205Z,100613.97
2022-09-02T17:26:46.796Z,100617.31
2022-09-02T17:29:37.952Z,100618.56
2022-09-02T17:32:03.629Z,100607.75
2022-09-02T17:34:33.256Z,100613.25
2022-09-02T17:36:59.798Z,100615.91
2022-09-02T17:39:26.831Z,100618.50
2022-09-02T17:41:57.443Z,100617.84
2022-09-02T17:44:34.955Z,100623.31
2022-09-02T17:47:07.663Z,100618.19
2022-09-02T17:49:38.076Z,100626.44
2022-09-02T17:52:06.838Z,100630.66
2022-09-02T17:54:34.636Z,100626.34
2022-09-02T17:57:19.758Z,100635.16
2022-09-02T18:00:07.709Z,100636.53
2022-09-02T18:02:43.891Z,100628.41
2022-09-02T18:05:16.580Z,100631.84
2022-09-02T18:07:49.853Z,100625.44
2022-09-02T18:10:17.815Z,100636.06
2022-09-02T18:12:44.430Z,100628.06
2022-09-02T18:15:17.099Z,100629.09
2022-09-02T18:17:48.551Z,100624.28
2022-09-02T18:20:47.295Z,100630.66
2022-09-02T18:23:21.028Z,100635.72
2022-09-02T18:26:24.276Z,100633.44
2022-09-02T18:29:22.344Z,100633.53
2022-09-02T18:32:26.208Z,100636.50
2022-09-02T18:35:17.793Z,100633.41
2022-09-02T18:38:04.293Z,100631.34
2022-09-02T18:40:45.681Z,100634.41
2022-09-02T18:43:31.146Z,100636.91
2022-09-02T18:46:01.032Z,100637.47
2022-09-02T18:48:38.584Z,100647.84
2022-09-02T18:51:31.402Z,100648.28
2022-09-02T18:54:08.879Z,100648.41
2022-09-02T18:56:39.142Z,100647.22
2022-09-02T18:59:11.557Z,100649.84
2022-09-02T19:01:46.114Z,100652.91
2022-09-02T19:04:14.367Z,100648.44
2022-09-02T19:06:41.525Z,100650.25
2022-09-02T19:09:12.936Z,100658.56
2022-09-02T19:11:40.155Z,100655.81
2022-09-02T19:14:06.576Z,100662.06
2022-09-02T19:16:36.157Z,100661.81
2022-09-02T19:19:04.247Z,100660.31
2022-09-02T19:21:39.212Z,100661.31
2022-09-02T19:24:10.173Z,100666.63
2022-09-02T19:26:38.254Z,100659.44
2022-09-02T19:29:12.121Z,100668.50
2022-09-02T19:31:40.881Z,100658.81
2022-09-02T19:34:08.282Z,100664.59
2022-09-02T19:36:39.019Z,100676.88
2022-09-02T19:39:05.556Z,100669.66
2022-09-02T19:41:32.070Z,100665.66
2022-09-02T19:44:00.054Z,100668.25
2022-09-02T19:49:13.428Z,100675.38
2022-09-02T19:51:41.036Z,100679.56
2022-09-02T19:54:08.553Z,100669.50
2022-09-02T19:56:35.116Z,100677.31
2022-09-02T19:59:01.947Z,100672.97
2022-09-02T20:01:28.508Z,100680.78
2022-09-02T20:03:55.032Z,100680.88
2022-09-02T20:06:21.526Z,100674.94
2022-09-02T20:08:48.025Z,100673.72
2022-09-02T20:11:15.078Z,100670.59
2022-09-02T20:13:41.990Z,100667.84
2022-09-02T20:16:16.929Z,100672.91
2022-09-02T20:18:48.321Z,100660.34
2022-09-02T20:21:30.907Z,100664.59
2022-09-02T20:24:08.192Z,100660.22
2022-09-02T20:27:11.076Z,100664.03
2022-09-02T20:29:46.597Z,100659.22
2022-09-02T20:32:30.344Z,100668.78
2022-09-02T20:35:25.810Z,100666.53
2022-09-02T20:38:20.257Z,100669.50
2022-09-02T20:41:18.706Z,100668.03
2022-09-02T20:44:06.883Z,100656.84
2022-09-02T20:46:54.900Z,100665.94
2022-09-02T20:49:30.871Z,100659.09
2022-09-02T20:52:16.188Z,100652.81
2022-09-02T20:54:58.387Z,100659.84
2022-09-02T20:57:46.271Z,100657.16
2022-09-02T21:00:20.428Z,100668.22
2022-09-02T21:03:05.279Z,100657.38
2022-09-02T21:05:38.565Z,100651.75
2022-09-02T21:08:08.535Z,100663.22
2022-09-02T21:10:43.044Z,100652.34
2022-09-02T21:13:18.092Z,100659.31
2022-09-02T21:16:00.277Z,100656.16
2022-09-02T21:18:59.213Z,100661.13
2022-09-02T21:21:36.960Z,100664.38
2022-09-02T21:24:14.154Z,100664.00
2022-09-02T21:26:49.173Z,100657.13
2022-09-02T21:29:18.848Z,100662.91
2022-09-02T21:31:52.533Z,100656.47
2022-09-02T21:34:33.583Z,100653.69
2022-09-02T21:37:03.808Z,100653.69
2022-09-02T21:39:35.249Z,100660.22
2022-09-02T21:42:11.125Z,100649.75
2022-09-02T21:44:43.576Z,100658.66
2022-09-02T21:47:19.441Z,100656.72
2022-09-02T21:49:49.457Z,100653.06
2022-09-02T21:52:52.978Z,100660.44
2022-09-02T21:55:35.422Z,100656.41
2022-09-02T21:58:16.626Z,100655.63
2022-09-02T22:00:48.750Z,100656.84
2022-09-02T22:03:37.082Z,100656.50
2022-09-02T22:06:23.740Z,100659.28
2022-09-02T22:09:04.205Z,100649.97
2022-09-02T22:11:35.711Z,100652.47
2022-09-02T22:14:16.334Z,100648.13
2022-09-02T22:16:54.554Z,100650.19
2022-09-02T22:19:30.324Z,100643.28
2022-09-02T22:22:06.175Z,100645.38
2022-09-02T22:24:37.104Z,100651.47
2022-09-02T22:27:15.956Z,100657.28
2022-09-02T22:30:11.538Z,100651.22
2022-09-02T22:32:43.100Z,100645.19
2022-09-02T22:35:34.395Z,100648.53
2022-09-02T22:38:30.824Z,100653.00
2022-09-02T22:41:20.148Z,100648.63
2022-09-02T22:43:52.217Z,100645.84
2022-09-02T22:46:46.458Z,100642.25
2022-09-02T22:49:49.271Z,100637.06
2022-09-02T22:52:40.228Z,100629.78
2022-09-02T22:55:13.102Z,100635.50
2022-09-02T22:57:52.223Z,100623.84
2022-09-02T23:00:20.043Z,100631.09
2022-09-02T23:02:53.308Z,100627.09
2022-09-02T23:06:05.287Z,100634.88
2022-09-02T23:08:36.957Z,100627.19
2022-09-02T23:11:16.592Z,100635.78
2022-09-02T23:14:26.415Z,100635.38
2022-09-02T23:17:18.238Z,100624.06
2022-09-02T23:20:05.728Z,100623.69
2022-09-02T23:23:04.336Z,100624.13
2022-09-02T23:25:34.656Z,100630.25
2022-09-02T23:28:19.227Z,100635.56
2022-09-02T23:31:07.305Z,100619.81
2022-09-02T23:33:49.422Z,100627.94
2022-09-02T23:36:36.008Z,100626.78
2022-09-02T23:39:11.649Z,100620.72
2022-09-02T23:41:41.805Z,100621.94
2022-09-02T23:44:09.860Z,100623.59
2022-09-02T23:47:05.564Z,100615.97
2022-09-02T23:50:03.644Z,100620.44
2022-09-02T23:52:59.888Z,100621.31
2022-09-02T23:55:35.533Z,100605.56
2022-09-02T23:58:20.867Z,100612.84
